KACK/ACK METAR and TAF weather

Enter ICAO airport designator
Station Type Date Time Source
KACK METAR 2018/12/12 15:53 UTC NOAA

KACK 121553Z 33015KT 10SM CLR 02/M06 A2999 RMK AO2 SLP156 T00171056


Station Type Date Time Source
KACK Decoded METAR 2018/12/12 15:53 UTC NOAA

NANTUCKET MEMORIAL AIRPORT, MA, United States (KACK) 41-15N 70-04W 16M
Dec 12, 2018 - 10:53 AM EST / 2018.12.12 1553 UTC
Wind: from the NNW (330 degrees) at 17 MPH (15 KT):0
Visibility: 10 mile(s):0
Sky conditions: clear
Temperature: 35.1 F (1.7 C)
Dew Point: 21.9 F (-5.6 C)
Relative Humidity: 58%
Pressure (altimeter): 29.99 in. Hg (1015 hPa)
ob: KACK 121553Z 33015KT 10SM CLR 02/M06 A2999 RMK AO2 SLP156 T00171056
cycle: 16

Station Type Date Time Source
KACK TAF 2018/12/12 15:06 UTC NOAA

TAF
AMD KACK 121504Z 1215/1312 32013G22KT P6SM SCT025
FM130000 35011G18KT P6SM SCT050
FM130200 35011KT P6SM SCT050


Example: see airport list